Time;durP1;ratioP1;P1;durP2;ratioP2;P2;SDS_P1;SDS_P2;PMS_P1;PMS_P2;Temp;Humidity;BMP_temperature;BMP_pressure;BME280_temperature;BME280_humidity;BME280_pressure;Samples;Min_cycle;Max_cycle;Signal;HPM_P1;HPM_P2
2022/05/09 00:01:23;;;;;;;0.00;0.00;;;;;;;3.90;100.00;102887.66;10248817;28;20031;-60
2022/05/09 00:06:24;;;;;;;0.00;0.00;;;;;;;3.75;100.00;102889.16;10246578;28;20090;-59
2022/05/09 00:11:24;;;;;;;0.00;0.00;;;;;;;3.61;100.00;102881.84;10244925;29;20019;-59
2022/05/09 00:16:25;;;;;;;0.00;0.00;;;;;;;3.55;100.00;102889.97;10247353;28;20375;-61
2022/05/09 00:21:25;;;;;;;0.00;0.00;;;;;;;3.52;100.00;102885.72;10248054;29;20027;-60
2022/05/09 00:26:31;;;;;;;0.10;0.10;;;;;;;3.55;100.00;102892.63;10243175;28;20081;-61
2022/05/09 00:31:31;;;;;;;0.03;0.03;;;;;;;3.57;100.00;102891.63;10247492;28;20043;-61
2022/05/09 00:36:32;;;;;;;0.00;0.00;;;;;;;3.60;100.00;102899.41;10246550;28;20031;-61
2022/05/09 00:41:34;;;;;;;0.00;0.00;;;;;;;3.59;100.00;102900.34;10246646;29;20015;-60
2022/05/09 00:46:34;;;;;;;0.00;0.00;;;;;;;3.55;100.00;102898.78;10245944;28;20051;-61
2022/05/09 00:51:36;;;;;;;0.00;0.00;;;;;;;3.54;100.00;102897.03;10246957;28;20555;-60
2022/05/09 00:56:42;;;;;;;0.00;0.00;;;;;;;3.47;100.00;102892.94;10243978;28;20037;-60
2022/05/09 01:01:45;;;;;;;0.00;0.00;;;;;;;3.52;100.00;102898.00;10246488;28;20376;-60
2022/05/09 01:06:46;;;;;;;0.03;0.03;;;;;;;3.57;100.00;102894.28;10244767;28;20114;-58
2022/05/09 01:11:47;;;;;;;0.00;0.00;;;;;;;3.54;100.00;102893.53;10245280;28;20030;-60
2022/05/09 01:16:48;;;;;;;0.00;0.00;;;;;;;3.48;100.00;102892.00;10245708;28;20035;-60
2022/05/09 01:21:48;;;;;;;0.10;0.10;;;;;;;3.42;100.00;102894.91;10245484;28;20024;-58
2022/05/09 01:26:49;;;;;;;0.00;0.00;;;;;;;3.37;100.00;102887.22;10243121;28;20044;-61
2022/05/09 01:31:52;;;;;;;0.05;0.05;;;;;;;3.38;100.00;102890.69;10246660;28;20023;-60
2022/05/09 01:37:00;;;;;;;0.00;0.00;;;;;;;3.39;100.00;102887.13;10247445;28;20055;-60
2022/05/09 01:42:04;;;;;;;0.00;0.00;;;;;;;3.48;100.00;102897.28;10253655;29;20074;-61
2022/05/09 01:52:24;;;;;;;0.08;0.08;;;;;;;3.37;100.00;102897.75;10253208;29;20023;-59
2022/05/09 01:57:24;;;;;;;0.00;0.00;;;;;;;3.31;100.00;102899.75;10247151;28;20121;-61
2022/05/09 02:02:24;;;;;;;0.00;0.00;;;;;;;3.26;100.00;102899.94;10253175;28;20410;-61
2022/05/09 02:07:26;;;;;;;0.08;0.08;;;;;;;3.20;100.00;102908.09;10266672;28;20474;-61
2022/05/09 02:12:27;;;;;;;0.00;0.00;;;;;;;3.20;100.00;102905.47;10252356;29;20558;-61
2022/05/09 02:17:29;;;;;;;0.10;0.10;;;;;;;3.12;100.00;102897.00;10252048;28;20057;-61
2022/05/09 02:22:29;;;;;;;0.00;0.00;;;;;;;3.11;100.00;102898.78;10252003;29;20033;-61
2022/05/09 02:27:30;;;;;;;0.10;0.10;;;;;;;3.16;100.00;102894.16;10248161;28;20566;-60
2022/05/09 02:32:30;;;;;;;0.00;0.00;;;;;;;3.19;100.00;102895.81;10251719;28;20070;-61
2022/05/09 02:37:30;;;;;;;0.00;0.00;;;;;;;3.15;100.00;102889.81;10250468;28;20027;-61
2022/05/09 02:42:30;;;;;;;0.00;0.00;;;;;;;3.15;100.00;102884.56;10266311;28;20026;-59
2022/05/09 02:47:31;;;;;;;0.00;0.00;;;;;;;3.11;100.00;102882.97;10249367;28;20275;-62
2022/05/09 02:52:31;;;;;;;0.00;0.00;;;;;;;3.07;100.00;102894.53;10250679;28;20081;-62
2022/05/09 02:57:32;;;;;;;0.00;0.00;;;;;;;3.00;100.00;102898.34;10247304;28;20198;-59
2022/05/09 03:02:32;;;;;;;0.10;0.10;;;;;;;2.94;100.00;102903.84;10250621;28;20015;-59
2022/05/09 03:07:34;;;;;;;0.05;0.05;;;;;;;2.82;100.00;102889.38;10249651;28;20019;-58
2022/05/09 03:12:34;;;;;;;0.00;0.00;;;;;;;2.76;100.00;102886.09;10250156;29;20034;-59
2022/05/09 03:17:34;;;;;;;0.10;0.10;;;;;;;2.82;100.00;102889.38;10249154;28;20034;-60
2022/05/09 03:22:35;;;;;;;0.10;0.10;;;;;;;2.82;100.00;102881.47;10249522;28;20031;-60
2022/05/09 03:27:35;;;;;;;0.10;0.10;;;;;;;2.82;100.00;102888.50;10248672;28;20069;-60
2022/05/09 03:32:36;;;;;;;0.10;0.10;;;;;;;2.86;100.00;102888.31;10249587;28;20027;-60
2022/05/09 03:37:37;;;;;;;0.10;0.10;;;;;;;2.85;100.00;102888.38;10248941;28;20471;-61
2022/05/09 03:42:38;;;;;;;0.10;0.10;;;;;;;2.87;100.00;102881.28;10249162;29;20446;-58
2022/05/09 03:47:39;;;;;;;0.00;0.00;;;;;;;3.06;100.00;102886.72;10219863;28;20030;-58
2022/05/09 03:52:39;;;;;;;0.00;0.00;;;;;;;3.55;100.00;102888.22;10242174;28;20513;-59
2022/05/09 03:57:48;;;;;;;0.10;0.10;;;;;;;4.10;100.00;102898.19;10237893;28;20035;-59
2022/05/09 04:02:48;;;;;;;0.00;0.00;;;;;;;4.83;100.00;102894.06;10232089;28;20274;-60
2022/05/09 04:07:51;;;;;;;0.00;0.00;;;;;;;5.78;100.00;102896.53;10244835;28;20251;-57
2022/05/09 04:12:52;;;;;;;0.00;0.00;;;;;;;7.01;100.00;102902.38;10244094;28;20287;-59
2022/05/09 04:17:53;;;;;;;0.00;0.00;;;;;;;8.25;100.00;102896.06;10238913;28;20038;-60
2022/05/09 04:22:54;;;;;;;0.00;0.00;;;;;;;9.49;100.00;102899.72;10307649;22;20053;-57
2022/05/09 04:27:57;;;;;;;0.00;0.00;;;;;;;10.38;100.00;102891.03;10369946;28;20034;-58
2022/05/09 04:32:57;;;;;;;0.10;0.10;;;;;;;11.04;94.99;102898.78;10369531;28;20017;-59
2022/05/09 04:37:58;;;;;;;0.00;0.00;;;;;;;11.64;92.46;102891.72;10369407;28;20026;-56
2022/05/09 04:42:59;;;;;;;0.00;0.00;;;;;;;12.38;87.55;102898.44;10369155;28;20055;-58
2022/05/09 04:48:00;;;;;;;0.10;0.10;;;;;;;13.04;83.14;102895.00;10367039;28;20018;-55
2022/05/09 04:53:02;;;;;;;0.10;0.10;;;;;;;13.28;80.79;102898.38;10365879;28;20477;-60
2022/05/09 04:58:03;;;;;;;0.10;0.10;;;;;;;13.57;76.18;102893.28;10366463;28;20059;-59
2022/05/09 05:03:04;;;;;;;0.10;0.10;;;;;;;14.01;74.57;102887.81;10365390;28;20014;-59
2022/05/09 05:08:05;;;;;;;0.00;0.00;;;;;;;14.53;72.31;102895.88;10365403;28;20029;-58
2022/05/09 05:13:05;;;;;;;0.10;0.10;;;;;;;15.01;69.83;102898.72;10369376;28;20119;-58
2022/05/09 05:18:05;;;;;;;0.10;0.10;;;;;;;15.54;67.47;102898.34;10372963;28;20036;-60
2022/05/09 05:23:07;;;;;;;0.00;0.00;;;;;;;15.84;67.36;102897.38;10372662;28;20072;-59
2022/05/09 05:28:08;;;;;;;0.10;0.10;;;;;;;16.50;65.51;102887.56;10373190;28;20731;-58
2022/05/09 05:33:08;;;;;;;0.00;0.00;;;;;;;17.15;64.83;102895.59;10373213;28;20105;-61
2022/05/09 05:38:09;;;;;;;0.10;0.10;;;;;;;17.55;59.24;102899.69;10372660;28;20400;-57
2022/05/09 05:43:09;;;;;;;0.10;0.10;;;;;;;18.09;57.89;102909.44;10373114;28;20532;-61
2022/05/09 05:48:09;;;;;;;0.10;0.10;;;;;;;18.59;56.36;102915.09;10372147;28;20512;-56
2022/05/09 05:53:09;;;;;;;0.00;0.00;;;;;;;18.98;54.37;102905.47;10353934;28;20440;-60
2022/05/09 05:58:10;;;;;;;0.00;0.00;;;;;;;19.18;53.78;102905.22;10371460;28;20081;-59
2022/05/09 06:03:10;;;;;;;0.00;0.00;;;;;;;19.67;51.88;102908.00;10363886;28;20096;-61
2022/05/09 06:08:11;;;;;;;0.00;0.00;;;;;;;19.91;52.16;102901.72;10371011;28;20022;-59
2022/05/09 06:13:11;;;;;;;0.10;0.10;;;;;;;20.55;49.11;102904.47;10370579;28;20018;-61
2022/05/09 06:18:14;;;;;;;0.00;0.00;;;;;;;20.77;46.60;102898.31;10371046;28;20192;-61
2022/05/09 06:23:17;;;;;;;0.10;0.10;;;;;;;20.90;46.71;102894.19;10370942;28;20056;-61
2022/05/09 06:28:21;;;;;;;0.10;0.10;;;;;;;20.95;45.53;102886.38;10369960;28;21137;-60
2022/05/09 06:33:23;;;;;;;0.00;0.00;;;;;;;21.13;45.93;102897.75;10370064;28;20037;-60
2022/05/09 06:38:25;;;;;;;0.10;0.10;;;;;;;20.88;42.36;102893.50;10368651;28;20477;-61
2022/05/09 06:43:25;;;;;;;0.00;0.00;;;;;;;20.27;42.74;102888.63;10369430;28;20026;-59
2022/05/09 06:48:26;;;;;;;0.10;0.10;;;;;;;20.40;41.96;102887.25;10369404;28;20026;-62
2022/05/09 06:53:26;;;;;;;0.00;0.00;;;;;;;20.11;40.96;102877.88;10369845;28;20523;-58
2022/05/09 06:58:27;;;;;;;0.10;0.10;;;;;;;20.39;40.94;102885.56;10368711;28;20029;-60
2022/05/09 07:03:30;;;;;;;0.00;0.00;;;;;;;20.30;40.91;102882.03;10369084;28;20024;-59
2022/05/09 07:08:32;;;;;;;0.10;0.10;;;;;;;20.10;40.17;102881.56;10369066;28;20022;-59
2022/05/09 07:13:33;;;;;;;0.00;0.00;;;;;;;20.12;40.50;102879.53;10368053;28;20139;-60
2022/05/09 07:18:34;;;;;;;0.00;0.00;;;;;;;20.30;39.26;102877.47;10368029;28;20104;-60
2022/05/09 07:23:35;;;;;;;0.10;0.10;;;;;;;20.77;38.75;102871.22;10368187;28;20416;-61
2022/05/09 07:28:35;;;;;;;0.00;0.00;;;;;;;20.89;38.57;102878.94;10367044;28;20124;-60
2022/05/09 07:33:36;;;;;;;0.00;0.00;;;;;;;20.52;36.91;102864.19;10367099;28;20427;-61
2022/05/09 07:38:36;;;;;;;0.00;0.00;;;;;;;20.64;37.73;102868.22;10367720;28;20049;-61
2022/05/09 07:43:37;;;;;;;0.00;0.00;;;;;;;20.34;37.75;102850.91;10367533;28;20030;-61
2022/05/09 07:48:40;;;;;;;0.10;0.10;;;;;;;20.28;38.90;102852.44;10365567;28;20280;-59
2022/05/09 07:53:40;;;;;;;0.00;0.00;;;;;;;19.96;36.98;102847.97;10361344;28;20177;-58
2022/05/09 07:58:41;;;;;;;0.00;0.00;;;;;;;19.88;38.39;102851.53;10367020;28;20085;-60
2022/05/09 08:03:42;;;;;;;0.00;0.00;;;;;;;20.18;38.16;102845.53;10364618;28;20483;-59
2022/05/09 08:08:43;;;;;;;0.00;0.00;;;;;;;20.65;36.93;102839.28;10366550;28;20034;-61
2022/05/09 08:13:45;;;;;;;0.00;0.00;;;;;;;20.67;35.86;102834.53;10366567;28;20040;-60
2022/05/09 08:18:45;;;;;;;0.00;0.00;;;;;;;20.82;35.19;102831.91;10366473;28;20473;-61
2022/05/09 08:23:46;;;;;;;0.00;0.00;;;;;;;20.43;34.36;102827.34;10350082;28;20120;-61
2022/05/09 08:28:46;;;;;;;0.00;0.00;;;;;;;20.48;36.85;102820.41;10366019;28;20041;-61
2022/05/09 08:33:50;;;;;;;0.00;0.00;;;;;;;20.39;35.26;102826.00;10365615;28;20052;-63
2022/05/09 08:38:50;;;;;;;0.03;0.03;;;;;;;20.42;39.33;102820.25;10365690;28;20028;-62
2022/05/09 08:44:04;;;;;;;0.00;0.00;;;;;;;20.04;38.65;102815.50;10362860;28;20392;-59
2022/05/09 08:49:41;;;;;;;0.00;0.00;;;;;;;19.85;40.67;102813.16;10361747;28;20014;-60
2022/05/09 08:54:42;;;;;;;0.10;0.10;;;;;;;19.80;45.29;102819.09;10360852;28;20026;-63
2022/05/09 09:00:20;;;;;;;0.03;0.03;;;;;;;20.20;45.10;102817.28;10365110;28;20128;-62
2022/05/09 09:05:26;;;;;;;0.00;0.00;;;;;;;20.32;43.05;102826.72;10362599;28;20033;-62
2022/05/09 09:10:32;;;;;;;0.10;0.10;;;;;;;19.85;40.83;102824.00;10365012;28;20072;-62
2022/05/09 09:16:00;;;;;;;0.00;0.00;;;;;;;19.84;43.92;102816.91;10362199;28;20397;-60
2022/05/09 09:21:15;;;;;;;0.10;0.10;;;;;;;20.09;43.97;102804.97;10357944;28;20029;-61
2022/05/09 09:26:45;;;;;;;0.00;0.00;;;;;;;19.83;41.99;102810.63;10359864;28;20033;-61
2022/05/09 09:31:58;;;;;;;0.00;0.00;;;;;;;19.89;42.95;102799.13;10364166;28;20046;-59
2022/05/09 09:37:11;;;;;;;0.00;0.00;;;;;;;20.04;41.93;102793.84;10363073;28;20078;-62
2022/05/09 09:42:12;;;;;;;0.10;0.10;;;;;;;20.17;43.63;102792.47;10358954;28;20018;-62
2022/05/09 09:47:18;;;;;;;0.10;0.10;;;;;;;20.19;35.07;102787.69;10355997;28;20123;-63
2022/05/09 09:52:23;;;;;;;0.10;0.10;;;;;;;20.15;35.58;102786.38;10354069;28;20026;-63
2022/05/09 09:57:30;;;;;;;0.10;0.10;;;;;;;19.92;37.11;102786.28;10365542;28;20021;-63
2022/05/09 10:02:31;;;;;;;0.10;0.10;;;;;;;19.89;36.31;102779.34;10371609;28;20129;-63
2022/05/09 10:07:33;;;;;;;0.10;0.10;;;;;;;20.03;36.84;102767.81;10371543;28;20101;-64
2022/05/09 10:12:34;;;;;;;0.07;0.07;;;;;;;20.32;37.18;102769.03;10370944;28;20101;-63
2022/05/09 10:17:34;;;;;;;0.10;0.10;;;;;;;20.49;37.25;102756.28;10370979;28;20264;-62
2022/05/09 10:28:06;;;;;;;0.00;0.00;;;;;;;20.58;39.50;102757.94;10335619;28;20484;-66
2022/05/09 10:33:32;;;;;;;0.10;0.10;;;;;;;20.55;41.38;102761.00;10340282;28;20026;-67
2022/05/09 10:38:40;;;;;;;0.10;0.10;;;;;;;20.60;37.94;102749.66;10331150;28;20489;-66
2022/05/09 10:43:50;;;;;;;0.00;0.00;;;;;;;21.07;41.27;102730.50;10337200;28;20022;-67
2022/05/09 10:49:06;;;;;;;0.10;0.10;;;;;;;20.63;37.31;102736.59;10370842;28;20057;-67
2022/05/09 10:54:20;;;;;;;0.00;0.00;;;;;;;20.48;38.25;102722.94;10358442;28;20022;-67
2022/05/09 10:59:30;;;;;;;0.00;0.00;;;;;;;20.58;38.40;102710.03;10324100;28;20081;-67
2022/05/09 11:04:33;;;;;;;0.10;0.10;;;;;;;20.44;38.30;102694.53;10329426;28;20034;-67
2022/05/09 11:10:02;;;;;;;0.10;0.10;;;;;;;20.46;38.91;102699.78;10327706;28;20018;-67
2022/05/09 11:15:11;;;;;;;0.10;0.10;;;;;;;20.45;40.46;102684.56;10330094;28;20028;-67
2022/05/09 11:20:31;;;;;;;0.10;0.10;;;;;;;20.64;37.43;102688.69;10330287;28;20030;-67
2022/05/09 11:26:13;;;;;;;0.10;0.10;;;;;;;20.59;37.89;102672.97;10326335;28;20453;-67
2022/05/09 11:31:20;;;;;;;0.10;0.10;;;;;;;20.50;34.74;102674.03;10243544;28;20815;-67
2022/05/09 11:36:59;;;;;;;0.00;0.00;;;;;;;20.48;36.68;102676.94;10318690;28;20057;-67
2022/05/09 11:47:34;;;;;;;0.10;0.10;;;;;;;20.70;35.58;102655.47;10363626;28;20026;-68
2022/05/09 11:52:41;;;;;;;0.10;0.10;;;;;;;20.67;36.19;102634.19;10363095;28;20114;-69
2022/05/09 11:57:44;;;;;;;0.03;0.03;;;;;;;21.08;36.48;102637.34;10333880;28;20032;-69
2022/05/09 12:02:54;;;;;;;0.00;0.00;;;;;;;21.32;36.08;102628.13;10328280;28;20086;-67
2022/05/09 12:08:11;;;;;;;0.10;0.10;;;;;;;21.24;34.99;102639.06;10326875;28;20121;-67
2022/05/09 12:13:38;;;;;;;0.00;0.00;;;;;;;21.28;37.67;102624.09;10356233;28;20026;-67
2022/05/09 12:18:59;;;;;;;0.00;0.00;;;;;;;21.32;36.04;102611.00;10367923;28;20040;-67
2022/05/09 12:24:14;;;;;;;0.10;0.10;;;;;;;21.18;34.09;102604.56;10363369;28;20030;-70
2022/05/09 12:29:15;;;;;;;0.00;0.00;;;;;;;21.13;39.27;102597.00;10325797;28;20029;-67
2022/05/09 12:34:21;;;;;;;0.00;0.00;;;;;;;21.20;36.97;102600.63;10326385;28;20027;-68
2022/05/09 12:39:36;;;;;;;0.10;0.10;;;;;;;21.21;36.67;102593.34;10326406;28;20037;-68
2022/05/09 12:44:46;;;;;;;0.00;0.00;;;;;;;21.09;35.62;102590.28;10339205;28;20030;-68
2022/05/09 12:49:51;;;;;;;0.10;0.10;;;;;;;21.17;37.77;102583.91;10366662;28;20068;-68
2022/05/09 13:00:18;;;;;;;0.10;0.10;;;;;;;21.14;36.96;102558.00;10325794;28;20050;-68
2022/05/09 13:05:35;;;;;;;0.10;0.10;;;;;;;21.36;39.89;102555.41;10325525;28;20023;-68
2022/05/09 13:10:48;;;;;;;0.00;0.00;;;;;;;21.25;36.38;102545.88;10326516;28;20061;-68
2022/05/09 13:15:49;;;;;;;0.00;0.00;;;;;;;21.38;37.16;102539.81;10325732;28;20061;-68
2022/05/09 13:20:54;;;;;;;0.00;0.00;;;;;;;21.22;34.68;102524.56;10325992;28;20458;-67
2022/05/09 13:25:57;;;;;;;0.00;0.00;;;;;;;21.28;36.64;102515.69;10324338;28;20023;-67
2022/05/09 13:30:58;;;;;;;0.00;0.00;;;;;;;21.52;35.34;102506.41;10325098;28;20050;-67
2022/05/09 13:36:04;;;;;;;0.10;0.10;;;;;;;21.47;36.18;102506.16;10350724;28;20104;-67
2022/05/09 13:41:14;;;;;;;0.00;0.00;;;;;;;21.41;35.41;102494.22;10341395;28;20113;-67
2022/05/09 13:46:23;;;;;;;0.00;0.00;;;;;;;21.37;35.96;102494.75;10358127;28;20118;-67
2022/05/09 13:51:36;;;;;;;0.00;0.00;;;;;;;21.40;37.03;102475.41;10373335;28;20021;-67
2022/05/09 13:56:38;;;;;;;0.00;0.00;;;;;;;21.35;35.43;102469.69;10347582;28;20061;-67
2022/05/09 14:01:45;;;;;;;0.10;0.10;;;;;;;21.47;35.37;102462.78;10332705;28;20045;-67
2022/05/09 14:06:46;;;;;;;0.10;0.10;;;;;;;21.65;35.70;102460.47;10331612;28;20536;-67
2022/05/09 14:11:59;;;;;;;0.00;0.00;;;;;;;21.62;36.61;102451.88;10332183;28;20034;-67
2022/05/09 14:17:02;;;;;;;0.00;0.00;;;;;;;21.60;35.15;102454.78;10347929;28;20498;-67
2022/05/09 14:22:03;;;;;;;;;;;;;;;21.39;33.65;102444.75;10373284;28;20030;-67
2022/05/09 14:32:40;;;;;;;0.10;0.10;;;;;;;21.60;34.22;102435.78;10343069;28;20030;-67
2022/05/09 14:37:53;;;;;;;0.03;0.03;;;;;;;21.63;33.94;102424.56;10370783;28;20033;-68
2022/05/09 14:43:04;;;;;;;0.00;0.00;;;;;;;21.74;36.21;102425.91;10370005;28;20026;-67
2022/05/09 14:48:24;;;;;;;0.00;0.00;;;;;;;21.82;34.53;102414.09;10329490;28;20022;-68
2022/05/09 14:53:34;;;;;;;0.10;0.10;;;;;;;21.70;34.16;102414.63;10363235;28;20381;-68
2022/05/09 14:58:38;;;;;;;0.10;0.10;;;;;;;21.84;36.08;102409.31;10335898;28;20105;-67
2022/05/09 15:03:47;;;;;;;0.00;0.00;;;;;;;21.79;36.77;102399.06;10328271;28;20022;-68
2022/05/09 15:08:47;;;;;;;0.00;0.00;;;;;;;21.78;35.20;102388.41;10330765;28;20184;-68
2022/05/09 15:13:50;;;;;;;0.00;0.00;;;;;;;21.74;33.39;102378.97;10332185;28;20109;-67
2022/05/09 15:18:50;;;;;;;0.10;0.10;;;;;;;21.66;34.22;102380.78;10370546;28;20025;-68
2022/05/09 15:23:50;;;;;;;0.00;0.00;;;;;;;21.66;34.36;102360.97;10366130;28;20269;-68
2022/05/09 15:28:51;;;;;;;0.00;0.00;;;;;;;21.67;34.71;102354.50;10327287;28;20018;-68
2022/05/09 15:33:52;;;;;;;0.00;0.00;;;;;;;21.60;34.43;102349.03;10329322;28;20030;-68
2022/05/09 15:38:53;;;;;;;0.00;0.00;;;;;;;21.51;34.53;102346.66;10330591;28;20397;-68
2022/05/09 15:44:03;;;;;;;0.00;0.00;;;;;;;21.43;34.44;102336.78;10328805;28;20022;-67
2022/05/09 15:49:09;;;;;;;0.10;0.10;;;;;;;21.45;32.95;102334.72;10326312;28;20034;-67
2022/05/09 15:54:09;;;;;;;0.00;0.00;;;;;;;21.44;33.87;102327.63;10342355;28;20084;-68
2022/05/09 15:59:11;;;;;;;0.00;0.00;;;;;;;21.39;34.78;102320.06;10330319;28;20061;-68
2022/05/09 16:04:12;;;;;;;0.00;0.00;;;;;;;21.30;32.54;102318.50;10328997;28;20102;-68
2022/05/09 16:14:33;;;;;;;0.00;0.00;;;;;;;21.32;33.92;102307.44;10328670;28;20050;-68
2022/05/09 16:19:50;;;;;;;0.05;0.05;;;;;;;21.28;35.52;102306.19;10329358;28;20030;-67
2022/05/09 16:24:51;;;;;;;0.00;0.00;;;;;;;21.27;36.07;102301.81;10356498;22;20052;-69
2022/05/09 16:29:53;;;;;;;0.00;0.00;;;;;;;21.18;35.85;102295.69;10369329;28;20037;-68
2022/05/09 16:34:54;;;;;;;0.10;0.10;;;;;;;21.10;36.53;102290.38;10368917;28;20068;-68
2022/05/09 16:39:56;;;;;;;0.00;0.00;;;;;;;20.96;35.64;102292.09;10369565;28;20053;-68
2022/05/09 16:45:01;;;;;;;0.00;0.00;;;;;;;20.83;35.39;102284.69;10369263;28;20022;-68
2022/05/09 16:50:07;;;;;;;0.08;0.08;;;;;;;20.72;37.00;102275.19;10369257;28;20029;-69
2022/05/09 16:55:08;;;;;;;0.10;0.10;;;;;;;20.66;37.79;102269.72;10384680;28;20095;-69
2022/05/09 17:00:13;;;;;;;0.00;0.00;;;;;;;20.60;37.25;102268.59;10409866;28;20087;-68
2022/05/09 17:05:15;;;;;;;0.00;0.00;;;;;;;20.54;38.58;102261.25;10409258;28;20022;-68
2022/05/09 17:10:17;;;;;;;0.00;0.00;;;;;;;20.44;39.92;102256.09;10408440;28;20044;-68
2022/05/09 17:15:22;;;;;;;0.00;0.00;;;;;;;20.35;38.80;102260.75;10407125;28;20033;-68
2022/05/09 17:20:26;;;;;;;0.05;0.05;;;;;;;20.30;39.59;102260.53;10408844;28;20025;-68
2022/05/09 17:25:36;;;;;;;0.10;0.10;;;;;;;20.23;39.80;102256.88;10381753;28;20029;-68
2022/05/09 17:30:37;;;;;;;0.10;0.10;;;;;;;20.11;38.72;102261.09;10368925;28;20026;-69
2022/05/09 17:41:00;;;;;;;0.10;0.10;;;;;;;19.85;39.71;102251.56;10367585;28;20029;-68
2022/05/09 17:46:01;;;;;;;0.10;0.10;;;;;;;19.75;40.95;102242.03;10367524;28;20369;-67
2022/05/09 17:51:01;;;;;;;0.10;0.10;;;;;;;19.59;41.36;102237.63;10368565;28;20022;-67
2022/05/09 17:56:02;;;;;;;0.00;0.00;;;;;;;19.37;42.98;102242.91;10365810;28;20112;-69
2022/05/09 18:01:09;;;;;;;0.10;0.10;;;;;;;19.17;45.05;102236.34;10368095;28;20448;-67
2022/05/09 18:06:09;;;;;;;0.00;0.00;;;;;;;18.89;45.69;102234.19;10367509;28;20116;-67
2022/05/09 18:11:12;;;;;;;0.10;0.10;;;;;;;18.70;45.53;102240.00;10367207;28;20074;-66
2022/05/09 18:16:15;;;;;;;0.10;0.10;;;;;;;18.52;46.06;102234.91;10351493;28;20479;-69
2022/05/09 18:21:20;;;;;;;0.10;0.10;;;;;;;18.31;47.81;102236.34;10347497;28;20034;-67
2022/05/09 18:26:20;;;;;;;0.10;0.10;;;;;;;18.02;50.88;102234.28;10349375;28;20136;-67
2022/05/09 18:31:21;;;;;;;0.10;0.10;;;;;;;17.60;54.99;102237.25;10358434;28;20113;-68
2022/05/09 18:36:22;;;;;;;0.00;0.00;;;;;;;17.21;54.27;102237.94;10354621;28;20370;-67
2022/05/09 18:41:24;;;;;;;0.10;0.10;;;;;;;16.97;56.20;102244.16;10350435;28;20022;-67
2022/05/09 18:46:25;;;;;;;0.10;0.10;;;;;;;16.66;58.53;102235.84;10358810;28;20022;-67
2022/05/09 18:56:46;;;;;;;0.10;0.10;;;;;;;16.00;61.95;102227.56;10350905;28;20022;-66
2022/05/09 19:01:46;;;;;;;0.10;0.10;;;;;;;15.68;62.59;102228.22;10339275;28;20022;-68
2022/05/09 19:06:49;;;;;;;0.10;0.10;;;;;;;15.57;59.27;102223.09;10356857;28;20025;-67
2022/05/09 19:11:51;;;;;;;0.15;0.15;;;;;;;15.61;57.84;102219.06;10345722;28;20026;-67
2022/05/09 19:16:52;;;;;;;0.10;0.10;;;;;;;15.53;58.54;102219.88;10358777;28;20109;-66
2022/05/09 19:21:52;;;;;;;0.10;0.10;;;;;;;15.47;60.11;102214.28;10351688;28;20018;-66
2022/05/09 19:26:53;;;;;;;0.10;0.10;;;;;;;15.23;58.79;102214.94;10358295;28;20021;-66
2022/05/09 19:31:55;;;;;;;0.10;0.10;;;;;;;15.25;57.77;102216.47;10350491;28;20503;-66
2022/05/09 19:36:55;;;;;;;0.10;0.10;;;;;;;15.29;59.07;102211.63;10346937;28;20032;-66
2022/05/09 19:42:00;;;;;;;0.13;0.13;;;;;;;15.23;57.42;102213.09;10354636;28;20024;-67
2022/05/09 19:47:02;;;;;;;0.10;0.10;;;;;;;15.28;56.61;102213.47;10342204;28;20028;-66
2022/05/09 19:57:22;;;;;;;0.10;0.10;;;;;;;15.30;55.79;102200.75;10358823;28;20026;-66
2022/05/09 20:02:25;;;;;;;0.07;0.07;;;;;;;15.39;55.21;102205.19;10355901;28;20421;-66
2022/05/09 20:07:25;;;;;;;0.10;0.10;;;;;;;15.45;55.27;102190.28;10362024;28;20018;-66
2022/05/09 20:12:29;;;;;;;0.15;0.15;;;;;;;15.37;55.26;102196.44;10349854;28;20032;-66
2022/05/09 20:17:30;;;;;;;0.10;0.10;;;;;;;15.24;55.82;102187.97;10364526;28;20029;-67
2022/05/09 20:22:40;;;;;;;0.20;0.20;;;;;;;15.09;56.01;102187.66;10358147;28;20030;-67
2022/05/09 20:33:00;;;;;;;0.10;0.10;;;;;;;15.18;55.70;102191.25;10349899;28;20038;-66
2022/05/09 20:38:01;;;;;;;0.10;0.10;;;;;;;15.21;55.77;102187.41;10351497;28;20025;-66
2022/05/09 20:43:06;;;;;;;0.10;0.10;;;;;;;15.25;56.00;102183.44;10351694;28;20105;-67
2022/05/09 20:48:08;;;;;;;0.10;0.10;;;;;;;15.27;55.71;102176.91;10359447;28;20117;-66
2022/05/09 20:53:17;;;;;;;0.00;0.00;;;;;;;15.25;56.23;102178.91;10347872;28;20081;-67
2022/05/09 20:58:17;;;;;;;0.10;0.10;;;;;;;15.23;56.37;102180.88;10348327;28;20095;-66
2022/05/09 21:03:18;;;;;;;0.00;0.00;;;;;;;15.22;56.74;102175.69;10354291;28;20018;-67
2022/05/09 21:08:24;;;;;;;0.10;0.10;;;;;;;15.20;57.14;102173.16;10345162;28;20037;-66
2022/05/09 21:13:24;;;;;;;0.10;0.10;;;;;;;15.15;57.53;102165.59;10342888;28;20018;-66
2022/05/09 21:18:25;;;;;;;0.10;0.10;;;;;;;15.15;57.89;102172.78;10341847;28;20031;-65
2022/05/09 21:23:28;;;;;;;0.10;0.10;;;;;;;15.11;58.28;102166.03;10349693;28;20045;-67
2022/05/09 21:28:31;;;;;;;0.10;0.10;;;;;;;15.07;58.75;102170.06;10351860;28;20272;-66
2022/05/09 21:33:31;;;;;;;0.10;0.10;;;;;;;14.93;60.14;102168.75;10345605;28;20034;-66
2022/05/09 21:43:55;;;;;;;0.10;0.10;;;;;;;14.43;62.45;102159.38;10349798;28;20013;-66
2022/05/09 21:48:56;;;;;;;0.10;0.10;;;;;;;14.44;61.97;102162.91;10331652;28;20022;-66
2022/05/09 21:53:57;;;;;;;0.17;0.17;;;;;;;14.57;61.32;102158.03;10343238;28;20397;-66
2022/05/09 21:59:00;;;;;;;0.10;0.10;;;;;;;14.69;60.96;102150.63;10346561;28;20029;-68
2022/05/09 22:04:01;;;;;;;0.10;0.10;;;;;;;14.71;60.78;102145.94;10360103;28;20060;-67
2022/05/09 22:09:23;;;;;;;0.10;0.10;;;;;;;14.74;60.20;102142.09;10354889;28;20448;-65
2022/05/09 22:14:25;;;;;;;0.10;0.10;;;;;;;14.77;60.16;102136.41;10345815;28;20108;-66
2022/05/09 22:19:26;;;;;;;0.10;0.10;;;;;;;14.68;61.04;102132.81;10350886;28;20124;-66
2022/05/09 22:24:27;;;;;;;0.10;0.10;;;;;;;14.55;62.30;102130.53;10355675;22;20398;-65
2022/05/09 22:29:28;;;;;;;0.10;0.10;;;;;;;14.33;63.95;102133.63;10267448;28;20080;-65
2022/05/09 22:34:31;;;;;;;0.10;0.10;;;;;;;14.17;64.52;102124.44;10251323;28;20016;-65
2022/05/09 22:39:36;;;;;;;0.10;0.10;;;;;;;13.99;65.94;102121.72;10252161;28;20114;-65
2022/05/09 22:44:39;;;;;;;0.10;0.10;;;;;;;13.84;67.27;102123.22;10268137;28;20049;-64
2022/05/09 22:49:43;;;;;;;0.10;0.10;;;;;;;13.66;68.86;102123.16;10288980;28;20429;-65
2022/05/09 22:54:43;;;;;;;0.10;0.10;;;;;;;13.51;70.77;102120.13;10271701;28;20027;-65
2022/05/09 22:59:45;;;;;;;0.10;0.10;;;;;;;13.39;71.31;102109.75;10253219;28;20437;-65
2022/05/09 23:04:45;;;;;;;0.10;0.10;;;;;;;13.36;70.92;102105.53;10263248;28;20106;-65
2022/05/09 23:09:46;;;;;;;0.00;0.00;;;;;;;13.34;71.75;102100.31;10252168;28;20441;-65
2022/05/09 23:14:48;;;;;;;0.10;0.10;;;;;;;13.39;71.52;102089.19;10249790;28;20027;-65
2022/05/09 23:19:48;;;;;;;0.10;0.10;;;;;;;13.41;71.19;102081.00;10255885;28;20019;-64
2022/05/09 23:24:49;;;;;;;0.00;0.00;;;;;;;13.37;71.82;102085.81;10255221;28;20045;-64
2022/05/09 23:29:49;;;;;;;0.10;0.10;;;;;;;13.30;72.76;102076.69;10250062;28;20026;-64
2022/05/09 23:34:50;;;;;;;0.10;0.10;;;;;;;13.30;72.60;102071.34;10249506;28;20012;-64
2022/05/09 23:39:52;;;;;;;0.10;0.10;;;;;;;13.28;73.16;102067.97;10249395;28;20027;-65
2022/05/09 23:44:55;;;;;;;0.10;0.10;;;;;;;13.27;73.44;102067.13;10248756;28;20011;-65
2022/05/09 23:49:57;;;;;;;0.10;0.10;;;;;;;13.24;73.97;102058.50;10249074;28;20090;-65
2022/05/09 23:54:58;;;;;;;0.10;0.10;;;;;;;13.14;74.68;102054.00;10262352;28;20024;-65
2022/05/09 23:59:58;;;;;;;0.00;0.00;;;;;;;13.04;75.94;102055.06;10248921;28;20078;-64
